sensor_id;sensor_type;location;lat;lon;timestamp;pressure;altitude;pressure_sealevel;temperature;humidity
7754;BME280;3921;42.266;23.122;2023-05-25T00:17:00;95440.44;;;18.28;63.70
7754;BME280;3921;42.266;23.122;2023-05-25T00:19:28;95205.19;;;16.80;63.78
7754;BME280;3921;42.266;23.122;2023-05-25T00:21:56;95464.31;;;18.47;64.08
7754;BME280;3921;42.266;23.122;2023-05-25T00:24:27;95374.25;;;17.84;64.01
7754;BME280;3921;42.266;23.122;2023-05-25T00:26:55;95283.44;;;17.17;64.34
7754;BME280;3921;42.266;23.122;2023-05-25T00:29:22;95457.34;;;18.29;64.19
7754;BME280;3921;42.266;23.122;2023-05-25T00:31:50;95322.50;;;17.38;64.07
7754;BME280;3921;42.266;23.122;2023-05-25T00:34:18;95305.25;;;17.23;64.24
7754;BME280;3921;42.266;23.122;2023-05-25T00:36:46;95189.00;;;16.59;63.95
7754;BME280;3921;42.266;23.122;2023-05-25T00:39:14;95231.31;;;16.84;64.10
7754;BME280;3921;42.266;23.122;2023-05-25T00:41:44;95475.88;;;18.33;64.65
7754;BME280;3921;42.266;23.122;2023-05-25T00:44:11;95331.59;;;17.20;64.33
7754;BME280;3921;42.266;23.122;2023-05-25T00:46:41;95201.09;;;16.51;64.44
7754;BME280;3921;42.266;23.122;2023-05-25T00:49:13;95567.56;;;18.78;64.31
7754;BME280;3921;42.266;23.122;2023-05-25T00:51:45;95426.41;;;17.69;64.49
7754;BME280;3921;42.266;23.122;2023-05-25T00:54:13;95504.97;;;18.25;64.32
7754;BME280;3921;42.266;23.122;2023-05-25T00:56:43;95113.00;;;15.81;64.26
7754;BME280;3921;42.266;23.122;2023-05-25T00:59:16;95598.19;;;18.75;64.31
7754;BME280;3921;42.266;23.122;2023-05-25T01:01:46;95328.75;;;17.05;64.10
7754;BME280;3921;42.266;23.122;2023-05-25T01:04:15;95630.78;;;18.65;64.45
7754;BME280;3921;42.266;23.122;2023-05-25T01:06:47;95640.81;;;18.70;64.17
7754;BME280;3921;42.266;23.122;2023-05-25T01:09:16;95504.06;;;18.03;64.03
7754;BME280;3921;42.266;23.122;2023-05-25T01:11:48;95621.38;;;18.67;64.04
7754;BME280;3921;42.266;23.122;2023-05-25T01:14:18;95382.25;;;17.23;64.24
7754;BME280;3921;42.266;23.122;2023-05-25T01:16:46;95387.06;;;17.06;64.11
7754;BME280;3921;42.266;23.122;2023-05-25T01:19:13;95367.22;;;16.92;64.17
7754;BME280;3921;42.266;23.122;2023-05-25T01:21:46;95267.53;;;16.36;64.23
7754;BME280;3921;42.266;23.122;2023-05-25T01:24:21;95193.78;;;15.90;63.96
7754;BME280;3921;42.266;23.122;2023-05-25T01:27:02;95524.88;;;17.89;64.51
7754;BME280;3921;42.266;23.122;2023-05-25T01:29:32;95518.25;;;17.85;64.39
7754;BME280;3921;42.266;23.122;2023-05-25T01:32:01;95330.72;;;16.68;64.15
7754;BME280;3921;42.266;23.122;2023-05-25T01:34:30;95514.91;;;17.83;64.73
7754;BME280;3921;42.266;23.122;2023-05-25T01:36:59;95212.41;;;15.89;64.72
7754;BME280;3921;42.266;23.122;2023-05-25T01:39:26;95359.19;;;16.78;64.70
7754;BME280;3921;42.266;23.122;2023-05-25T01:41:54;95202.41;;;15.85;64.72
7754;BME280;3921;42.266;23.122;2023-05-25T01:44:21;95177.06;;;15.57;64.90
7754;BME280;3921;42.266;23.122;2023-05-25T01:46:53;95450.03;;;17.21;65.30
7754;BME280;3921;42.266;23.122;2023-05-25T01:49:27;95615.16;;;18.26;65.50
7754;BME280;3921;42.266;23.122;2023-05-25T01:52:03;95556.00;;;17.96;65.55
7754;BME280;3921;42.266;23.122;2023-05-25T01:54:37;95143.00;;;15.39;64.92
7754;BME280;3921;42.266;23.122;2023-05-25T01:57:11;95230.53;;;15.76;65.14
7754;BME280;3921;42.266;23.122;2023-05-25T01:59:47;95180.13;;;15.38;64.44
7754;BME280;3921;42.266;23.122;2023-05-25T02:15:29;95358.00;;;16.34;64.09
7754;BME280;3921;42.266;23.122;2023-05-25T02:17:57;95616.06;;;17.98;64.09
7754;BME280;3921;42.266;23.122;2023-05-25T02:20:27;95632.28;;;17.96;64.36
7754;BME280;3921;42.266;23.122;2023-05-25T02:22:54;95394.63;;;16.53;64.48
7754;BME280;3921;42.266;23.122;2023-05-25T02:25:24;95214.81;;;15.35;64.52
7754;BME280;3921;42.266;23.122;2023-05-25T02:27:55;95198.47;;;15.17;64.52
7754;BME280;3921;42.266;23.122;2023-05-25T02:32:55;95201.22;;;15.09;64.21
7754;BME280;3921;42.266;23.122;2023-05-25T02:38:05;95629.44;;;17.78;63.36
7754;BME280;3921;42.266;23.122;2023-05-25T02:40:44;95145.09;;;14.66;63.09
7754;BME280;3921;42.266;23.122;2023-05-25T02:43:29;95220.22;;;14.93;63.54
7754;BME280;3921;42.266;23.122;2023-05-25T02:45:58;95342.78;;;15.78;63.66
7754;BME280;3921;42.266;23.122;2023-05-25T02:48:27;95639.34;;;17.58;63.88
7754;BME280;3921;42.266;23.122;2023-05-25T02:50:54;95336.75;;;15.51;64.42
7754;BME280;3921;42.266;23.122;2023-05-25T02:53:21;95545.78;;;16.90;64.21
7754;BME280;3921;42.266;23.122;2023-05-25T02:55:48;95543.28;;;16.88;64.31
7754;BME280;3921;42.266;23.122;2023-05-25T02:58:15;95575.97;;;16.99;64.35
7754;BME280;3921;42.266;23.122;2023-05-25T03:00:42;95571.19;;;16.88;64.37
7754;BME280;3921;42.266;23.122;2023-05-25T03:03:09;95645.56;;;17.49;64.68
7754;BME280;3921;42.266;23.122;2023-05-25T03:05:37;95222.69;;;14.64;65.03
7754;BME280;3921;42.266;23.122;2023-05-25T03:08:04;95661.66;;;17.48;64.69
7754;BME280;3921;42.266;23.122;2023-05-25T03:10:31;95341.66;;;15.57;64.84
7754;BME280;3921;42.266;23.122;2023-05-25T03:12:58;95655.72;;;17.49;64.83
7754;BME280;3921;42.266;23.122;2023-05-25T03:15:25;95472.94;;;16.34;65.16
7754;BME280;3921;42.266;23.122;2023-05-25T03:17:52;95665.78;;;17.52;65.25
7754;BME280;3921;42.266;23.122;2023-05-25T03:20:21;95659.88;;;17.52;65.33
7754;BME280;3921;42.266;23.122;2023-05-25T03:22:52;95504.66;;;16.49;65.20
7754;BME280;3921;42.266;23.122;2023-05-25T03:25:19;95407.97;;;15.71;65.39
7754;BME280;3921;42.266;23.122;2023-05-25T03:27:46;95232.03;;;14.60;64.65
7754;BME280;3921;42.266;23.122;2023-05-25T03:30:14;95231.38;;;14.53;64.87
7754;BME280;3921;42.266;23.122;2023-05-25T03:32:42;95246.59;;;14.50;64.70
7754;BME280;3921;42.266;23.122;2023-05-25T03:35:17;95246.59;;;14.50;64.79
7754;BME280;3921;42.266;23.122;2023-05-25T03:37:47;95260.00;;;14.54;64.63
7754;BME280;3921;42.266;23.122;2023-05-25T03:40:16;95694.53;;;17.25;65.11
7754;BME280;3921;42.266;23.122;2023-05-25T03:42:45;95679.09;;;17.33;64.77
7754;BME280;3921;42.266;23.122;2023-05-25T03:45:16;95255.13;;;14.48;64.72
7754;BME280;3921;42.266;23.122;2023-05-25T03:47:44;95157.03;;;13.92;65.01
7754;BME280;3921;42.266;23.122;2023-05-25T03:50:15;95201.63;;;14.29;64.73
7754;BME280;3921;42.266;23.122;2023-05-25T03:52:49;95416.84;;;15.55;65.20
7754;BME280;3921;42.266;23.122;2023-05-25T03:55:17;95595.34;;;16.72;65.08
7754;BME280;3921;42.266;23.122;2023-05-25T03:57:47;95210.66;;;14.38;64.68
7754;BME280;3921;42.266;23.122;2023-05-25T04:00:17;95210.22;;;14.22;64.93
7754;BME280;3921;42.266;23.122;2023-05-25T04:19:41;95347.75;;;14.84;66.52
7754;BME280;3921;42.266;23.122;2023-05-25T04:22:19;95609.59;;;16.45;67.26
7754;BME280;3921;42.266;23.122;2023-05-25T04:24:46;95468.28;;;15.57;67.62
7754;BME280;3921;42.266;23.122;2023-05-25T04:27:13;95708.31;;;17.16;67.52
7754;BME280;3921;42.266;23.122;2023-05-25T04:29:40;95319.25;;;14.78;67.41
7754;BME280;3921;42.266;23.122;2023-05-25T05:00:50;95742.06;;;17.20;68.65
7754;BME280;3921;42.266;23.122;2023-05-25T05:03:20;95260.06;;;14.17;68.87
7754;BME280;3921;42.266;23.122;2023-05-25T05:05:50;95738.53;;;17.25;69.37
7754;BME280;3921;42.266;23.122;2023-05-25T05:52:32;95271.63;;;15.26;74.95
7754;BME280;3921;42.266;23.122;2023-05-25T05:55:18;95419.72;;;16.05;75.00
7754;BME280;3921;42.266;23.122;2023-05-25T05:58:00;95286.53;;;15.35;75.64
7754;BME280;3921;42.266;23.122;2023-05-25T06:00:30;95299.66;;;15.50;75.74
7754;BME280;3921;42.266;23.122;2023-05-25T06:03:05;95269.50;;;15.40;75.50
7754;BME280;3921;42.266;23.122;2023-05-25T06:05:47;95661.97;;;17.94;75.96
7754;BME280;3921;42.266;23.122;2023-05-25T06:08:20;95271.53;;;15.59;75.64
7754;BME280;3921;42.266;23.122;2023-05-25T06:10:50;95480.94;;;16.80;76.12
7754;BME280;3921;42.266;23.122;2023-05-25T06:13:31;95706.38;;;18.37;76.23
7754;BME280;3921;42.266;23.122;2023-05-25T06:15:59;95256.31;;;15.60;76.30
7754;BME280;3921;42.266;23.122;2023-05-25T06:18:29;95268.97;;;15.59;74.77
7754;BME280;3921;42.266;23.122;2023-05-25T06:20:59;95468.94;;;16.85;72.60
7754;BME280;3921;42.266;23.122;2023-05-25T06:23:31;95274.06;;;15.88;71.23
7754;BME280;3921;42.266;23.122;2023-05-25T06:26:03;95221.94;;;15.52;70.65
7754;BME280;3921;42.266;23.122;2023-05-25T07:22:06;95287.56;;;16.43;70.49
7754;BME280;3921;42.266;23.122;2023-05-25T07:24:58;95185.94;;;15.98;70.43
7754;BME280;3921;42.266;23.122;2023-05-25T07:27:38;95226.81;;;16.14;70.46
7754;BME280;3921;42.266;23.122;2023-05-25T07:30:18;95240.53;;;16.35;71.34
7754;BME280;3921;42.266;23.122;2023-05-25T07:33:07;95272.06;;;16.53;71.52
7754;BME280;3921;42.266;23.122;2023-05-25T07:35:57;95213.13;;;16.19;71.89
7754;BME280;3921;42.266;23.122;2023-05-25T07:39:04;95264.19;;;16.60;72.18
7754;BME280;3921;42.266;23.122;2023-05-25T07:41:46;95228.84;;;16.56;72.20
7754;BME280;3921;42.266;23.122;2023-05-25T07:44:24;95244.94;;;16.55;72.56
7754;BME280;3921;42.266;23.122;2023-05-25T07:47:05;95240.50;;;16.61;72.51
7754;BME280;3921;42.266;23.122;2023-05-25T07:49:40;95263.53;;;16.82;72.65
7754;BME280;3921;42.266;23.122;2023-05-25T07:52:09;95236.97;;;16.65;72.56
7754;BME280;3921;42.266;23.122;2023-05-25T07:54:41;95256.88;;;16.78;73.43
7754;BME280;3921;42.266;23.122;2023-05-25T07:57:36;95246.94;;;16.71;73.77
7754;BME280;3921;42.266;23.122;2023-05-25T08:00:19;95184.44;;;16.44;73.75
7754;BME280;3921;42.266;23.122;2023-05-25T08:06:01;95389.81;;;17.75;74.41
7754;BME280;3921;42.266;23.122;2023-05-25T08:08:29;95237.63;;;16.72;74.70
7754;BME280;3921;42.266;23.122;2023-05-25T08:11:08;95152.84;;;16.28;74.46
7754;BME280;3921;42.266;23.122;2023-05-25T08:14:02;95679.19;;;19.57;74.24
7754;BME280;3921;42.266;23.122;2023-05-25T08:16:31;95678.94;;;19.65;74.10
7754;BME280;3921;42.266;23.122;2023-05-25T08:19:19;95676.31;;;19.67;73.99
7754;BME280;3921;42.266;23.122;2023-05-25T08:22:02;95230.53;;;16.82;72.91
7754;BME280;3921;42.266;23.122;2023-05-25T08:24:31;95278.00;;;17.03;72.06
7754;BME280;3921;42.266;23.122;2023-05-25T08:27:16;95222.41;;;16.72;71.37
7754;BME280;3921;42.266;23.122;2023-05-25T08:29:50;95231.81;;;16.93;70.87
7754;BME280;3921;42.266;23.122;2023-05-25T08:37:46;95543.28;;;18.91;70.97
7754;BME280;3921;42.266;23.122;2023-05-25T08:40:39;95172.41;;;16.76;70.80
7754;BME280;3921;42.266;23.122;2023-05-25T08:55:58;95232.75;;;17.14;61.40
7754;BME280;3921;42.266;23.122;2023-05-25T08:58:33;95270.59;;;17.45;59.74
7754;BME280;3921;42.266;23.122;2023-05-25T09:02:02;95694.56;;;20.22;58.96
7754;BME280;3921;42.266;23.122;2023-05-25T09:04:49;95129.09;;;16.80;59.17
7754;BME280;3921;42.266;23.122;2023-05-25T09:07:23;95155.31;;;16.81;60.51
7754;BME280;3921;42.266;23.122;2023-05-25T09:09:54;95672.47;;;20.21;60.94
7754;BME280;3921;42.266;23.122;2023-05-25T14:19:39;95323.34;;;22.49;51.78
7754;BME280;3921;42.266;23.122;2023-05-25T14:24:56;95196.47;;;21.68;50.66
7754;BME280;3921;42.266;23.122;2023-05-25T20:33:53;95734.06;;;20.11;71.02
7754;BME280;3921;42.266;23.122;2023-05-25T20:36:28;95726.47;;;20.10;71.14
7754;BME280;3921;42.266;23.122;2023-05-25T20:59:42;95267.84;;;17.28;69.87
7754;BME280;3921;42.266;23.122;2023-05-25T21:02:09;95160.56;;;16.50;69.37
7754;BME280;3921;42.266;23.122;2023-05-25T21:04:37;95370.50;;;17.69;69.22
7754;BME280;3921;42.266;23.122;2023-05-25T21:17:31;95573.03;;;19.13;71.08
7754;BME280;3921;42.266;23.122;2023-05-25T21:19:59;95244.81;;;17.09;70.62
7754;BME280;3921;42.266;23.122;2023-05-25T21:22:26;95272.63;;;17.12;70.60
7754;BME280;3921;42.266;23.122;2023-05-25T21:25:07;95200.47;;;16.71;70.89
7754;BME280;3921;42.266;23.122;2023-05-25T21:27:48;95579.09;;;19.10;71.40
7754;BME280;3921;42.266;23.122;2023-05-25T21:30:16;95695.94;;;19.86;71.40
7754;BME280;3921;42.266;23.122;2023-05-25T21:32:49;95494.03;;;18.47;70.50
7754;BME280;3921;42.266;23.122;2023-05-25T21:35:21;95219.88;;;16.72;70.65
7754;BME280;3921;42.266;23.122;2023-05-25T21:38:02;95229.66;;;16.83;71.01
7754;BME280;3921;42.266;23.122;2023-05-25T21:40:29;95191.69;;;16.55;71.08
7754;BME280;3921;42.266;23.122;2023-05-25T21:43:00;95167.34;;;16.49;70.48
7754;BME280;3921;42.266;23.122;2023-05-25T21:45:27;95681.06;;;19.76;70.28
7754;BME280;3921;42.266;23.122;2023-05-25T21:47:56;95223.69;;;16.84;70.22
7754;BME280;3921;42.266;23.122;2023-05-25T21:50:23;95701.63;;;19.71;69.73
7754;BME280;3921;42.266;23.122;2023-05-25T21:52:58;95249.53;;;16.95;70.12
7754;BME280;3921;42.266;23.122;2023-05-25T21:55:28;95678.59;;;19.74;70.09
7754;BME280;3921;42.266;23.122;2023-05-25T21:57:59;95301.53;;;17.08;70.16
7754;BME280;3921;42.266;23.122;2023-05-25T22:00:41;95710.94;;;19.72;70.16
7754;BME280;3921;42.266;23.122;2023-05-25T22:03:13;95245.19;;;16.73;70.31
7754;BME280;3921;42.266;23.122;2023-05-25T22:05:45;95440.81;;;17.94;70.71
7754;BME280;3921;42.266;23.122;2023-05-25T22:08:14;95601.81;;;18.93;70.57
7754;BME280;3921;42.266;23.122;2023-05-25T22:26:29;95197.81;;;16.23;71.42
7754;BME280;3921;42.266;23.122;2023-05-25T22:29:10;95250.94;;;16.79;71.40
7754;BME280;3921;42.266;23.122;2023-05-25T22:31:58;95190.38;;;16.43;71.56
7754;BME280;3921;42.266;23.122;2023-05-25T22:37:02;95683.63;;;19.52;71.54
7754;BME280;3921;42.266;23.122;2023-05-25T22:39:44;95407.66;;;17.73;71.66
7754;BME280;3921;42.266;23.122;2023-05-25T22:42:19;95309.19;;;17.07;71.90
7754;BME280;3921;42.266;23.122;2023-05-25T22:44:46;95251.59;;;16.59;72.74
7754;BME280;3921;42.266;23.122;2023-05-25T22:47:18;95708.63;;;19.43;72.68
7754;BME280;3921;42.266;23.122;2023-05-25T22:49:47;95157.16;;;16.01;72.46
7754;BME280;3921;42.266;23.122;2023-05-25T22:54:59;95275.91;;;16.64;71.63
7754;BME280;3921;42.266;23.122;2023-05-25T22:57:29;95355.97;;;17.24;72.06
7754;BME280;3921;42.266;23.122;2023-05-25T23:00:00;95280.44;;;16.55;72.35
7754;BME280;3921;42.266;23.122;2023-05-25T23:02:27;95241.84;;;16.46;72.39
7754;BME280;3921;42.266;23.122;2023-05-25T23:04:54;95374.06;;;17.15;72.41
7754;BME280;3921;42.266;23.122;2023-05-25T23:07:24;95232.19;;;16.31;73.03
7754;BME280;3921;42.266;23.122;2023-05-25T23:09:56;95206.16;;;16.00;72.95
7754;BME280;3921;42.266;23.122;2023-05-25T23:15:56;95370.31;;;17.25;73.09
7754;BME280;3921;42.266;23.122;2023-05-25T23:18:24;95548.72;;;18.35;73.16
7754;BME280;3921;42.266;23.122;2023-05-25T23:20:52;95219.31;;;16.11;73.40
7754;BME280;3921;42.266;23.122;2023-05-25T23:25:56;95133.94;;;15.60;72.95
7754;BME280;3921;42.266;23.122;2023-05-25T23:28:24;95223.66;;;16.07;73.23
7754;BME280;3921;42.266;23.122;2023-05-25T23:31:06;95194.56;;;15.92;73.68
7754;BME280;3921;42.266;23.122;2023-05-25T23:33:40;95149.66;;;15.70;73.78
7754;BME280;3921;42.266;23.122;2023-05-25T23:36:19;95323.97;;;16.69;74.03
7754;BME280;3921;42.266;23.122;2023-05-25T23:38:56;95224.50;;;16.08;73.76
7754;BME280;3921;42.266;23.122;2023-05-25T23:41:26;95199.91;;;15.83;73.30
7754;BME280;3921;42.266;23.122;2023-05-25T23:43:56;95379.84;;;17.20;73.63
7754;BME280;3921;42.266;23.122;2023-05-25T23:46:25;95659.59;;;18.91;73.57
7754;BME280;3921;42.266;23.122;2023-05-25T23:48:56;95541.72;;;17.92;73.39
7754;BME280;3921;42.266;23.122;2023-05-25T23:51:29;95362.75;;;16.99;73.13
7754;BME280;3921;42.266;23.122;2023-05-25T23:53:57;95182.19;;;15.83;72.94
7754;BME280;3921;42.266;23.122;2023-05-25T23:56:27;95248.00;;;16.11;72.37
7754;BME280;3921;42.266;23.122;2023-05-25T23:58:56;95417.91;;;17.20;71.52
